Amelia City, Florida
Current Conditions -  °F | °C
As of 10:15 AM on Thursday 30 Oct 2014 (Local Time) from KFHB Reporting Station
Clear Clear  
Wind Chill: 24°   Ceiling: Unl
Heat Index: 24°   Visibility: 10mi
Dew Point: 19°   Wind: 6mph
Humidity: 73%   Direction: 350°N
Pressure: 29.98"   Gusts: NA
Location:  30.6056°N, 81.5268°W
Report Text: KFHB 301415Z AUTO 35005KT 10SM CLR 24/19 A2998 RMK AO1
Loading
Personal Weather Stations






























Interactive Weather Map New forecast layout! Learn more

10-Day Weather Forecast

Advertisements
Track Severe Weather on mobile